Sunnyside, Washington
Current Conditions -  °F | °C
As of 1:53 PM on Sunday 21 Dec 2014 (Local Time) from KYKM Reporting Station
Few Clouds Few Clouds  
Wind Chill: 57°   Ceiling: Unl
Heat Index: 57°   Visibility: 10mi
Dew Point: 36°   Wind: 15mph
Humidity: 45%   Direction: 270°W
Pressure: 29.92"   Gusts: 23mph
Location:  46.32°N, 120.01°W
Report Text: KYKM 212153Z 27013G20KT 10SM FEW060 14/02 A2992 RMK AO2 PK WND 28028/2101 SLP133 T01390022
Loading
Personal Weather Stations






























Interactive Weather Map New forecast layout! Learn more

10-Day Weather Forecast

Advertisements
Track Severe Weather on mobile